createdAt,value
2022-11-25T00:00:11.720Z,101178.44
2022-11-25T00:02:44.415Z,101181.50
2022-11-25T00:05:11.467Z,101173.34
2022-11-25T00:07:39.893Z,101170.72
2022-11-25T00:10:08.217Z,101173.47
2022-11-25T00:12:35.317Z,101171.81
2022-11-25T00:15:02.525Z,101165.91
2022-11-25T00:17:30.013Z,101168.84
2022-11-25T00:19:57.031Z,101168.84
2022-11-25T00:22:24.091Z,101170.00
2022-11-25T00:24:52.389Z,101166.88
2022-11-25T00:27:19.338Z,101159.63
2022-11-25T00:29:46.344Z,101158.84
2022-11-25T00:32:13.332Z,101160.81
2022-11-25T00:34:40.228Z,101158.31
2022-11-25T00:37:07.197Z,101162.28
2022-11-25T00:39:34.183Z,101159.78
2022-11-25T00:42:21.065Z,101157.84
2022-11-25T00:44:49.455Z,101167.53
2022-11-25T00:47:19.382Z,101160.31
2022-11-25T00:49:48.769Z,101154.72
2022-11-25T00:52:18.027Z,101158.00
2022-11-25T00:54:47.491Z,101163.28
2022-11-25T00:57:17.447Z,101159.63
2022-11-25T00:59:44.703Z,101153.13
2022-11-25T01:02:13.376Z,101152.66
2022-11-25T01:04:40.507Z,101153.47
2022-11-25T01:07:07.823Z,101154.28
2022-11-25T01:09:35.874Z,101160.06
2022-11-25T01:12:04.041Z,101150.34
2022-11-25T01:14:32.812Z,101146.06
2022-11-25T01:17:00.180Z,101149.00
2022-11-25T01:19:27.406Z,101144.09
2022-11-25T01:21:54.370Z,101143.28
2022-11-25T01:24:23.900Z,101142.13
2022-11-25T01:26:51.216Z,101143.28
2022-11-25T01:29:19.350Z,101145.91
2022-11-25T01:31:48.658Z,101153.47
2022-11-25T01:34:18.455Z,101147.88
2022-11-25T01:36:45.913Z,101148.81
2022-11-25T01:39:18.799Z,101139.44
2022-11-25T01:41:47.269Z,101143.22
2022-11-25T01:44:17.544Z,101143.56
2022-11-25T01:47:00.546Z,101144.00
2022-11-25T01:49:36.492Z,101137.44
2022-11-25T01:52:13.982Z,101140.22
2022-11-25T01:54:48.305Z,101136.59
2022-11-25T01:57:24.636Z,101134.63
2022-11-25T01:59:56.403Z,101128.19
2022-11-25T02:02:25.153Z,101131.16
2022-11-25T02:04:52.897Z,101120.81
2022-11-25T02:07:29.529Z,101115.56
2022-11-25T02:09:59.776Z,101126.09
2022-11-25T02:12:28.415Z,101117.22
2022-11-25T02:14:58.523Z,101128.41
2022-11-25T02:17:27.040Z,101128.09
2022-11-25T02:20:04.386Z,101129.88
2022-11-25T02:22:56.426Z,101136.28
2022-11-25T02:25:28.119Z,101122.00
2022-11-25T02:28:02.639Z,101126.13
2022-11-25T02:30:29.807Z,101121.50
2022-11-25T02:32:59.304Z,101118.88
2022-11-25T02:35:31.551Z,101126.28
2022-11-25T02:38:05.551Z,101134.66
2022-11-25T02:40:40.735Z,101128.88
2022-11-25T02:43:07.817Z,101122.78
2022-11-25T02:45:56.770Z,101115.09
2022-11-25T02:48:45.797Z,101112.28
2022-11-25T02:51:15.000Z,101112.28
2022-11-25T02:53:42.426Z,101111.00
2022-11-25T02:56:14.420Z,101108.19
2022-11-25T02:58:42.273Z,101113.28
2022-11-25T03:01:10.085Z,101109.69
2022-11-25T03:03:38.079Z,101105.41
2022-11-25T03:06:05.460Z,101113.94
2022-11-25T03:08:32.420Z,101104.25
2022-11-25T03:10:59.414Z,101103.09
2022-11-25T03:13:27.884Z,101097.22
2022-11-25T03:15:54.874Z,101099.53
2022-11-25T03:18:21.985Z,101091.16
2022-11-25T03:20:53.432Z,101099.22
2022-11-25T03:23:20.670Z,101089.34
2022-11-25T03:25:47.775Z,101097.75
2022-11-25T03:28:15.075Z,101092.50
2022-11-25T03:30:43.795Z,101092.13
2022-11-25T03:33:10.770Z,101089.69
2022-11-25T03:35:37.714Z,101095.47
2022-11-25T03:38:05.002Z,101101.19
2022-11-25T03:40:31.941Z,101109.41
2022-11-25T03:42:58.899Z,101105.81
2022-11-25T03:45:25.860Z,101109.75
2022-11-25T03:47:54.148Z,101117.34
2022-11-25T03:50:21.328Z,101117.34
2022-11-25T03:52:48.284Z,101110.41
2022-11-25T03:55:15.415Z,101114.53
2022-11-25T03:57:42.434Z,101107.78
2022-11-25T04:00:11.217Z,101113.22
2022-11-25T04:02:40.517Z,101114.69
2022-11-25T04:05:09.971Z,101115.34
2022-11-25T04:07:37.034Z,101108.13
2022-11-25T04:10:05.479Z,101108.59
2022-11-25T04:12:47.156Z,101104.47
2022-11-25T04:15:16.104Z,101112.06
2022-11-25T04:17:43.644Z,101111.09
2022-11-25T04:20:14.292Z,101108.75
2022-11-25T04:22:41.557Z,101112.72
2022-11-25T04:25:09.727Z,101113.38
2022-11-25T04:27:36.729Z,101118.63
2022-11-25T04:30:04.756Z,101115.69
2022-11-25T04:32:31.750Z,101109.78
2022-11-25T04:34:58.705Z,101113.84
2022-11-25T04:37:26.978Z,101107.44
2022-11-25T04:39:54.005Z,101107.13
2022-11-25T04:42:34.207Z,101109.09
2022-11-25T04:45:22.588Z,101106.94
2022-11-25T04:47:51.096Z,101112.88
2022-11-25T04:50:21.737Z,101113.03
2022-11-25T04:52:50.386Z,101110.72
2022-11-25T04:55:17.591Z,101113.00
2022-11-25T04:57:44.527Z,101116.97
2022-11-25T05:00:13.116Z,101107.09
2022-11-25T05:02:40.390Z,101109.41
2022-11-25T05:05:08.723Z,101111.03
2022-11-25T05:07:35.734Z,101107.09
2022-11-25T05:10:05.545Z,101110.34
2022-11-25T05:12:32.631Z,101117.75
2022-11-25T05:14:59.576Z,101116.25
2022-11-25T05:17:30.067Z,101116.75
2022-11-25T05:19:58.016Z,101114.31
2022-11-25T05:22:28.101Z,101117.59
2022-11-25T05:24:55.695Z,101109.69
2022-11-25T05:27:25.637Z,101109.03
2022-11-25T05:29:56.239Z,101110.84
2022-11-25T05:32:23.653Z,101118.59
2022-11-25T05:34:50.597Z,101109.69
2022-11-25T05:37:23.962Z,101110.03
2022-11-25T05:39:51.724Z,101116.31
2022-11-25T05:42:19.687Z,101112.84
2022-11-25T05:44:47.943Z,101111.69
2022-11-25T05:47:14.923Z,101113.03
2022-11-25T05:49:42.297Z,101114.69
2022-11-25T05:52:09.258Z,101107.59
2022-11-25T05:54:36.655Z,101114.34
2022-11-25T05:57:03.921Z,101118.63
2022-11-25T05:59:30.995Z,101115.00
2022-11-25T06:01:59.279Z,101113.50
2022-11-25T06:04:26.256Z,101114.34
2022-11-25T06:06:53.455Z,101111.72
2022-11-25T06:09:20.426Z,101107.09
2022-11-25T06:11:47.376Z,101114.03
2022-11-25T06:14:17.549Z,101110.72
2022-11-25T06:16:44.683Z,101117.63
2022-11-25T06:19:15.922Z,101115.31
2022-11-25T06:21:42.910Z,101111.56
2022-11-25T06:24:09.890Z,101119.59
2022-11-25T06:26:37.325Z,101122.56
2022-11-25T06:29:04.652Z,101128.34
2022-11-25T06:31:31.641Z,101126.50
2022-11-25T06:33:58.584Z,101126.19
2022-11-25T06:36:26.854Z,101132.75
2022-11-25T06:38:54.804Z,101127.81
2022-11-25T06:41:22.613Z,101127.81
2022-11-25T06:43:49.885Z,101131.91
2022-11-25T06:46:24.582Z,101133.06
2022-11-25T06:48:52.738Z,101142.63
2022-11-25T06:51:20.106Z,101143.59
2022-11-25T06:53:48.432Z,101147.06
2022-11-25T06:56:18.940Z,101138.34
2022-11-25T06:58:47.957Z,101140.97
2022-11-25T07:01:18.272Z,101140.31
2022-11-25T07:03:47.666Z,101147.91
2022-11-25T07:06:16.453Z,101140.19
2022-11-25T07:08:44.907Z,101146.28
2022-11-25T07:11:17.571Z,101145.44
2022-11-25T07:13:44.656Z,101144.63
2022-11-25T07:16:15.219Z,101140.19
2022-11-25T07:18:42.346Z,101148.25
2022-11-25T07:21:14.175Z,101145.75
2022-11-25T07:23:42.964Z,101156.16
2022-11-25T07:26:14.502Z,101160.72
2022-11-25T07:28:43.597Z,101159.94
2022-11-25T07:31:27.639Z,101167.00
2022-11-25T07:33:59.244Z,101170.28
2022-11-25T07:36:26.853Z,101179.50
2022-11-25T07:38:54.423Z,101185.28
2022-11-25T07:41:26.064Z,101196.28
2022-11-25T07:43:56.227Z,101199.91
2022-11-25T07:46:27.433Z,101199.09
2022-11-25T07:48:57.320Z,101209.13
2022-11-25T07:51:27.757Z,101209.47
2022-11-25T07:53:57.355Z,101212.06
2022-11-25T07:56:26.311Z,101215.56
2022-11-25T07:58:53.950Z,101220.97
2022-11-25T08:01:21.663Z,101216.50
2022-11-25T08:03:51.135Z,101216.84
2022-11-25T08:06:22.753Z,101220.13
2022-11-25T08:08:52.751Z,101216.97
2022-11-25T08:11:22.801Z,101224.41
2022-11-25T08:13:51.724Z,101227.34
2022-11-25T08:16:21.532Z,101230.66
2022-11-25T08:18:49.681Z,101238.22
2022-11-25T08:21:18.285Z,101241.69
2022-11-25T08:23:49.275Z,101244.31
2022-11-25T08:26:19.930Z,101247.44
2022-11-25T08:28:47.765Z,101245.94
2022-11-25T08:31:19.597Z,101256.47
2022-11-25T08:33:48.319Z,101254.03
2022-11-25T08:36:16.793Z,101273.63
2022-11-25T08:38:48.505Z,101272.00
2022-11-25T08:41:22.492Z,101268.72
2022-11-25T08:43:50.744Z,101271.69
2022-11-25T08:46:26.394Z,101271.19
2022-11-25T08:48:53.887Z,101268.69
2022-11-25T08:51:24.271Z,101266.84
2022-11-25T08:54:04.311Z,101266.88
2022-11-25T08:56:41.918Z,101265.84
2022-11-25T08:59:09.305Z,101264.69
2022-11-25T09:01:38.248Z,101267.66
2022-11-25T09:04:07.118Z,101271.94
2022-11-25T09:06:34.135Z,101269.44
2022-11-25T09:09:01.791Z,101269.59
2022-11-25T09:11:29.313Z,101263.66
2022-11-25T09:13:56.543Z,101274.16
2022-11-25T09:16:26.583Z,101277.09
2022-11-25T09:18:56.281Z,101274.13
2022-11-25T09:21:25.474Z,101279.06
2022-11-25T09:23:54.464Z,101279.38
2022-11-25T09:26:25.612Z,101285.47
2022-11-25T09:28:56.451Z,101288.94
2022-11-25T09:31:24.550Z,101291.44
2022-11-25T09:33:52.539Z,101292.22
2022-11-25T09:36:21.726Z,101290.06
2022-11-25T09:38:49.169Z,101291.56
2022-11-25T09:41:57.711Z,101287.56
2022-11-25T09:45:11.107Z,101300.75
2022-11-25T09:47:57.258Z,101306.03
2022-11-25T09:50:45.872Z,101305.66
2022-11-25T09:53:34.863Z,101299.34
2022-11-25T09:56:09.169Z,101302.75
2022-11-25T09:58:50.392Z,101315.09
2022-11-25T10:01:22.932Z,101308.66
2022-11-25T10:03:58.169Z,101308.53
2022-11-25T10:06:28.138Z,101304.88
2022-11-25T10:09:00.671Z,101314.75
2022-11-25T10:11:44.451Z,101318.03
2022-11-25T10:14:23.177Z,101322.31
2022-11-25T10:16:58.156Z,101307.47
2022-11-25T10:19:43.795Z,101315.94
2022-11-25T10:22:25.689Z,101322.72
2022-11-25T10:24:58.720Z,101322.69
2022-11-25T10:27:41.573Z,101318.50
2022-11-25T10:30:23.724Z,101315.34
2022-11-25T10:33:02.483Z,101319.28
2022-11-25T10:35:49.223Z,101327.53
2022-11-25T10:38:26.124Z,101325.69
2022-11-25T10:40:59.069Z,101330.63
2022-11-25T10:43:31.698Z,101333.06
2022-11-25T10:46:11.414Z,101330.81
2022-11-25T10:48:55.077Z,101338.09
2022-11-25T10:51:38.278Z,101331.16
2022-11-25T10:54:25.631Z,101333.78
2022-11-25T10:56:58.903Z,101330.97
2022-11-25T10:59:34.245Z,101337.91
2022-11-25T11:02:20.209Z,101336.72
2022-11-25T11:04:58.752Z,101337.38
2022-11-25T11:07:30.716Z,101341.63
2022-11-25T11:10:17.860Z,101349.56
2022-11-25T11:12:58.727Z,101350.16
2022-11-25T11:15:30.195Z,101345.81
2022-11-25T11:18:13.443Z,101353.22
2022-11-25T11:20:47.901Z,101344.84
2022-11-25T11:23:16.581Z,101343.97
2022-11-25T11:25:56.378Z,101359.94
2022-11-25T11:28:33.058Z,101352.13
2022-11-25T11:31:04.055Z,101352.56
2022-11-25T11:33:40.716Z,101356.16
2022-11-25T11:36:39.024Z,101352.91
2022-11-25T11:39:28.931Z,101357.19
2022-11-25T11:42:07.864Z,101361.41
2022-11-25T11:44:55.190Z,101361.16
2022-11-25T11:47:34.331Z,101371.09
2022-11-25T11:50:26.878Z,101369.66
2022-11-25T11:53:21.549Z,101371.75
2022-11-25T11:56:34.097Z,101371.09
2022-11-25T11:59:17.474Z,101367.31
2022-11-25T12:02:13.800Z,101370.81
2022-11-25T12:04:46.890Z,101369.53
2022-11-25T12:07:22.621Z,101370.81
2022-11-25T12:09:57.319Z,101379.66
2022-11-25T12:12:36.059Z,101374.25
2022-11-25T12:15:15.359Z,101380.06
2022-11-25T12:17:53.043Z,101379.97
2022-11-25T12:20:36.129Z,101383.22
2022-11-25T12:23:12.751Z,101389.44
2022-11-25T12:25:43.056Z,101384.84
2022-11-25T12:28:17.992Z,101383.31
2022-11-25T12:31:05.115Z,101389.63
2022-11-25T12:33:49.803Z,101395.41
2022-11-25T12:36:24.547Z,101394.69
2022-11-25T12:38:59.500Z,101394.94
2022-11-25T12:41:39.714Z,101398.59
2022-11-25T12:44:14.696Z,101403.72
2022-11-25T12:46:46.681Z,101405.19
2022-11-25T12:49:21.671Z,101399.06
2022-11-25T12:52:16.905Z,101418.47
2022-11-25T12:55:20.136Z,101416.81
2022-11-25T12:58:29.477Z,101422.06
2022-11-25T13:01:49.773Z,101420.81
2022-11-25T13:05:39.460Z,101412.22
2022-11-25T13:08:25.717Z,101418.16
2022-11-25T13:11:27.025Z,101421.94
2022-11-25T13:14:13.526Z,101418.91
2022-11-25T13:16:45.234Z,101428.16
2022-11-25T13:19:17.413Z,101427.31
2022-11-25T13:21:59.534Z,101437.47
2022-11-25T13:24:31.560Z,101432.78
2022-11-25T13:27:02.214Z,101428.16
2022-11-25T13:29:59.983Z,101434.56
2022-11-25T13:32:34.217Z,101436.22
2022-11-25T13:35:34.579Z,101442.69
2022-11-25T13:38:35.730Z,101443.50
2022-11-25T13:41:22.235Z,101449.31
2022-11-25T13:44:04.561Z,101449.59
2022-11-25T13:46:40.022Z,101454.75
2022-11-25T13:49:32.716Z,101456.56
2022-11-25T13:52:04.345Z,101469.06
2022-11-25T13:54:40.642Z,101467.25
2022-11-25T13:57:28.039Z,101469.69
2022-11-25T13:59:59.381Z,101475.09
2022-11-25T14:02:45.291Z,101470.63
2022-11-25T14:05:59.821Z,101479.94
2022-11-25T14:08:43.404Z,101483.06
2022-11-25T14:11:49.154Z,101490.38
2022-11-25T14:14:57.360Z,101488.53
2022-11-25T14:17:47.881Z,101497.94
2022-11-25T14:20:42.979Z,101499.41
2022-11-25T14:23:46.989Z,101496.75
2022-11-25T14:26:48.233Z,101500.03
2022-11-25T14:29:22.852Z,101505.34
2022-11-25T14:31:55.709Z,101506.63
2022-11-25T14:34:30.683Z,101509.53
2022-11-25T14:37:08.210Z,101514.09
2022-11-25T14:39:45.229Z,101523.50
2022-11-25T14:42:17.640Z,101520.53
2022-11-25T14:44:50.312Z,101524.66
2022-11-25T14:47:22.859Z,101517.09
2022-11-25T14:50:18.760Z,101524.66
2022-11-25T14:52:44.054Z,101516.78
2022-11-25T14:55:12.686Z,101527.97
2022-11-25T14:57:44.858Z,101525.88
2022-11-25T15:00:16.792Z,101534.66
2022-11-25T15:02:55.644Z,101537.06
2022-11-25T15:05:26.887Z,101539.44
2022-11-25T15:08:00.932Z,101552.09
2022-11-25T15:10:41.198Z,101553.09
2022-11-25T15:13:29.989Z,101553.91
2022-11-25T15:16:07.397Z,101553.34
2022-11-25T15:18:35.536Z,101557.03
2022-11-25T15:21:04.545Z,101565.97
2022-11-25T15:23:36.713Z,101567.38
2022-11-25T15:26:15.173Z,101572.06
2022-11-25T15:28:42.294Z,101575.41
2022-11-25T15:31:18.444Z,101573.84
2022-11-25T15:33:47.221Z,101581.63
2022-11-25T15:36:14.385Z,101592.44
2022-11-25T15:38:44.157Z,101584.28
2022-11-25T15:41:21.518Z,101584.09
2022-11-25T15:43:53.668Z,101596.34
2022-11-25T15:46:25.089Z,101592.06
2022-11-25T15:48:58.516Z,101600.38
2022-11-25T15:51:37.203Z,101602.56
2022-11-25T15:54:17.440Z,101609.06
2022-11-25T15:56:49.863Z,101612.53
2022-11-25T15:59:41.483Z,101614.13
2022-11-25T16:02:50.347Z,101615.94
2022-11-25T16:05:32.727Z,101621.03
2022-11-25T16:08:25.778Z,101632.41
2022-11-25T16:11:00.185Z,101627.91
2022-11-25T16:13:34.572Z,101637.41
2022-11-25T16:16:28.909Z,101635.31
2022-11-25T16:19:37.616Z,101652.22
2022-11-25T16:22:06.003Z,101656.63
2022-11-25T16:24:38.509Z,101651.94
2022-11-25T16:27:16.743Z,101650.31
2022-11-25T16:30:08.169Z,101661.56
2022-11-25T16:32:35.181Z,101665.84
2022-11-25T16:35:15.178Z,101667.16
2022-11-25T16:37:47.045Z,101668.06
2022-11-25T16:40:18.144Z,101668.72
2022-11-25T16:42:49.192Z,101678.69
2022-11-25T16:45:20.942Z,101683.72
2022-11-25T16:47:47.939Z,101673.09
2022-11-25T16:50:18.841Z,101682.69
2022-11-25T16:52:46.020Z,101690.47
2022-11-25T16:55:13.947Z,101689.28
2022-11-25T16:57:43.352Z,101696.88
2022-11-25T17:00:16.738Z,101697.50
2022-11-25T17:02:44.754Z,101700.44
2022-11-25T17:05:19.941Z,101702.75
2022-11-25T17:07:47.641Z,101709.72
2022-11-25T17:10:14.874Z,101707.06
2022-11-25T17:12:44.180Z,101716.47
2022-11-25T17:15:17.028Z,101722.59
2022-11-25T17:17:47.446Z,101723.41
2022-11-25T17:20:21.386Z,101722.59
2022-11-25T17:22:48.607Z,101733.19
2022-11-25T17:25:15.737Z,101735.22
2022-11-25T17:27:45.820Z,101736.59
2022-11-25T17:30:19.299Z,101739.25
2022-11-25T17:32:47.621Z,101751.69
2022-11-25T17:35:20.868Z,101751.88
2022-11-25T17:37:48.582Z,101762.47
2022-11-25T17:40:16.215Z,101755.50
2022-11-25T17:42:48.664Z,101760.81
2022-11-25T17:45:19.173Z,101761.16
2022-11-25T17:47:46.811Z,101762.84
2022-11-25T17:50:22.097Z,101765.69
2022-11-25T17:52:50.050Z,101775.25
2022-11-25T17:55:19.659Z,101776.28
2022-11-25T17:57:47.777Z,101783.41
2022-11-25T18:00:18.813Z,101782.78
2022-11-25T18:02:45.949Z,101783.97
2022-11-25T18:05:17.811Z,101788.63
2022-11-25T18:07:46.783Z,101795.09
2022-11-25T18:10:16.252Z,101790.16
2022-11-25T18:12:45.988Z,101794.16
2022-11-25T18:15:18.870Z,101786.91
2022-11-25T18:17:46.961Z,101790.09
2022-11-25T18:20:21.197Z,101791.63
2022-11-25T18:22:51.483Z,101800.09
2022-11-25T18:25:23.126Z,101808.44
2022-11-25T18:27:56.017Z,101810.25
2022-11-25T18:30:27.224Z,101822.22
2022-11-25T18:32:56.143Z,101826.84
2022-11-25T18:35:29.824Z,101821.53
2022-11-25T18:38:00.972Z,101830.31
2022-11-25T18:40:29.842Z,101837.09
2022-11-25T18:43:00.786Z,101841.41
2022-11-25T18:45:33.074Z,101836.94
2022-11-25T18:48:00.266Z,101842.06
2022-11-25T18:50:27.637Z,101847.19
2022-11-25T18:52:54.744Z,101853.31
2022-11-25T18:55:24.142Z,101852.31
2022-11-25T18:57:52.375Z,101852.31
2022-11-25T19:00:32.249Z,101861.44
2022-11-25T19:03:00.799Z,101859.97
2022-11-25T19:05:31.033Z,101867.28
2022-11-25T19:07:58.433Z,101871.91
2022-11-25T19:10:34.372Z,101880.22
2022-11-25T19:13:07.295Z,101879.41
2022-11-25T19:15:37.143Z,101881.56
2022-11-25T19:18:06.827Z,101890.69
2022-11-25T19:20:34.261Z,101898.34
2022-11-25T19:23:15.795Z,101905.16
2022-11-25T19:25:45.072Z,101902.84
2022-11-25T19:28:14.839Z,101914.78
2022-11-25T19:30:43.030Z,101915.78
2022-11-25T19:33:18.176Z,101927.38
2022-11-25T19:35:45.220Z,101930.19
2022-11-25T19:38:18.172Z,101932.38
2022-11-25T19:40:46.523Z,101938.50
2022-11-25T19:43:14.046Z,101947.44
2022-11-25T19:45:41.456Z,101943.28
2022-11-25T19:48:15.313Z,101950.59
2022-11-25T19:50:45.423Z,101956.88
2022-11-25T19:53:18.971Z,101967.47
2022-11-25T19:55:48.484Z,101965.00
2022-11-25T19:58:15.687Z,101966.16
2022-11-25T20:00:45.720Z,101976.28
2022-11-25T20:03:20.212Z,101982.75
2022-11-25T20:05:47.256Z,101990.84
2022-11-25T20:08:23.055Z,101996.47
2022-11-25T20:10:52.314Z,101991.50
2022-11-25T20:13:19.362Z,102008.53
2022-11-25T20:15:46.735Z,102008.19
2022-11-25T20:18:18.498Z,102004.25
2022-11-25T20:20:49.923Z,102013.50
2022-11-25T20:23:27.020Z,102012.19
2022-11-25T20:25:55.851Z,102015.97
2022-11-25T20:28:25.727Z,102014.50
2022-11-25T20:30:54.483Z,102027.72
2022-11-25T20:33:24.625Z,102024.59
2022-11-25T20:35:59.558Z,102039.00
2022-11-25T20:38:29.948Z,102036.47
2022-11-25T20:41:00.163Z,102040.28
2022-11-25T20:43:33.018Z,102045.75
2022-11-25T20:46:02.047Z,102044.25
2022-11-25T20:48:30.064Z,102053.22
2022-11-25T20:51:01.361Z,102053.53
2022-11-25T20:53:31.913Z,102055.50
2022-11-25T20:56:00.381Z,102057.66
2022-11-25T20:58:31.827Z,102066.72
2022-11-25T21:00:59.668Z,102074.84
2022-11-25T21:03:27.307Z,102070.88
2022-11-25T21:05:55.715Z,102081.59
2022-11-25T21:08:27.655Z,102076.63
2022-11-25T21:10:57.613Z,102084.72
2022-11-25T21:13:28.573Z,102083.06
2022-11-25T21:15:59.363Z,102086.72
2022-11-25T21:18:26.389Z,102087.88
2022-11-25T21:20:58.188Z,102092.50
2022-11-25T21:23:30.140Z,102097.13
2022-11-25T21:26:06.577Z,102092.13
2022-11-25T21:28:41.960Z,102094.97
2022-11-25T21:31:14.189Z,102102.06
2022-11-25T21:33:41.181Z,102092.75
2022-11-25T21:36:17.432Z,102112.47
2022-11-25T21:38:45.673Z,102113.59
2022-11-25T21:41:13.027Z,102114.75
2022-11-25T21:43:47.855Z,102116.88
2022-11-25T21:46:20.759Z,102110.91
2022-11-25T21:48:48.668Z,102118.84
2022-11-25T21:51:24.122Z,102127.75
2022-11-25T21:53:51.304Z,102121.97
2022-11-25T21:56:25.058Z,102122.13
2022-11-25T21:58:53.759Z,102127.56
2022-11-25T22:01:21.897Z,102127.88
2022-11-25T22:03:49.107Z,102132.47
2022-11-25T22:06:22.765Z,102130.97
2022-11-25T22:08:50.491Z,102138.91
2022-11-25T22:11:20.999Z,102140.75
2022-11-25T22:13:49.558Z,102141.88
2022-11-25T22:16:26.066Z,102147.31
2022-11-25T22:18:53.405Z,102152.78
2022-11-25T22:21:20.346Z,102151.94
2022-11-25T22:23:47.368Z,102146.94
2022-11-25T22:26:20.923Z,102152.53
2022-11-25T22:28:52.847Z,102162.56
2022-11-25T22:31:22.907Z,102161.91
2022-11-25T22:33:50.423Z,102159.56
2022-11-25T22:36:34.438Z,102174.09
2022-11-25T22:39:14.729Z,102164.66
2022-11-25T22:41:44.488Z,102169.09
2022-11-25T22:44:21.214Z,102178.31
2022-11-25T22:46:50.996Z,102183.59
2022-11-25T22:49:36.873Z,102186.56
2022-11-25T22:52:04.314Z,102181.25
2022-11-25T22:54:33.367Z,102190.88
2022-11-25T22:57:00.305Z,102193.63
2022-11-25T22:59:27.262Z,102199.09
2022-11-25T23:01:55.742Z,102196.75
2022-11-25T23:04:22.751Z,102206.63
2022-11-25T23:06:51.162Z,102210.28
2022-11-25T23:09:19.616Z,102212.09
2022-11-25T23:11:47.841Z,102207.63
2022-11-25T23:14:15.186Z,102208.44
2022-11-25T23:16:42.711Z,102210.28
2022-11-25T23:19:18.498Z,102214.84
2022-11-25T23:21:45.943Z,102217.50
2022-11-25T23:24:16.197Z,102215.19
2022-11-25T23:26:43.650Z,102222.94
2022-11-25T23:29:10.581Z,102218.78
2022-11-25T23:31:39.938Z,102217.97
2022-11-25T23:34:07.993Z,102225.22
2022-11-25T23:36:46.730Z,102233.59
2022-11-25T23:39:20.982Z,102243.66
2022-11-25T23:41:48.916Z,102239.50
2022-11-25T23:44:22.490Z,102242.41
2022-11-25T23:46:51.843Z,102259.22
2022-11-25T23:49:23.712Z,102258.28
2022-11-25T23:51:56.140Z,102248.00
2022-11-25T23:54:30.933Z,102261.50
2022-11-25T23:56:58.127Z,102263.16
2022-11-25T23:59:30.729Z,102263.31
